sensor_id;sensor_type;location;lat;lon;timestamp;P1;durP1;ratioP1;P2;durP2;ratioP2
16403;SDS011;8311;50.158;8.642;2022-12-29T00:02:39;0.55;;;0.40;;
16403;SDS011;8311;50.158;8.642;2022-12-29T00:05:33;0.40;;;0.40;;
16403;SDS011;8311;50.158;8.642;2022-12-29T00:08:26;0.75;;;0.47;;
16403;SDS011;8311;50.158;8.642;2022-12-29T00:11:31;0.40;;;0.40;;
16403;SDS011;8311;50.158;8.642;2022-12-29T00:14:24;0.57;;;0.57;;
16403;SDS011;8311;50.158;8.642;2022-12-29T00:17:36;0.40;;;0.40;;
16403;SDS011;8311;50.158;8.642;2022-12-29T00:20:29;0.70;;;0.52;;
16403;SDS011;8311;50.158;8.642;2022-12-29T00:23:42;0.55;;;0.40;;
16403;SDS011;8311;50.158;8.642;2022-12-29T00:26:54;2.75;;;0.60;;
16403;SDS011;8311;50.158;8.642;2022-12-29T00:30:08;0.82;;;0.45;;
16403;SDS011;8311;50.158;8.642;2022-12-29T00:33:28;1.33;;;0.50;;
16403;SDS011;8311;50.158;8.642;2022-12-29T00:36:39;2.00;;;0.50;;
16403;SDS011;8311;50.158;8.642;2022-12-29T00:39:34;1.13;;;0.50;;
16403;SDS011;8311;50.158;8.642;2022-12-29T00:42:59;0.50;;;0.38;;
16403;SDS011;8311;50.158;8.642;2022-12-29T00:46:10;1.90;;;0.70;;
16403;SDS011;8311;50.158;8.642;2022-12-29T00:49:12;1.15;;;0.77;;
16403;SDS011;8311;50.158;8.642;2022-12-29T00:52:25;1.10;;;0.55;;
16403;SDS011;8311;50.158;8.642;2022-12-29T00:55:18;0.93;;;0.50;;
16403;SDS011;8311;50.158;8.642;2022-12-29T00:58:11;0.90;;;0.50;;
16403;SDS011;8311;50.158;8.642;2022-12-29T01:01:05;1.60;;;0.70;;
16403;SDS011;8311;50.158;8.642;2022-12-29T01:04:00;0.68;;;0.52;;
16403;SDS011;8311;50.158;8.642;2022-12-29T01:06:56;1.83;;;0.40;;
16403;SDS011;8311;50.158;8.642;2022-12-29T01:09:50;0.90;;;0.60;;
16403;SDS011;8311;50.158;8.642;2022-12-29T01:13:01;1.02;;;0.52;;
16403;SDS011;8311;50.158;8.642;2022-12-29T01:15:58;2.15;;;0.60;;
16403;SDS011;8311;50.158;8.642;2022-12-29T01:18:58;0.50;;;0.43;;
16403;SDS011;8311;50.158;8.642;2022-12-29T01:21:51;1.60;;;0.45;;
16403;SDS011;8311;50.158;8.642;2022-12-29T01:24:45;1.85;;;0.70;;
16403;SDS011;8311;50.158;8.642;2022-12-29T01:27:39;1.00;;;0.57;;
16403;SDS011;8311;50.158;8.642;2022-12-29T01:30:32;2.05;;;0.70;;
16403;SDS011;8311;50.158;8.642;2022-12-29T01:33:25;0.98;;;0.60;;
16403;SDS011;8311;50.158;8.642;2022-12-29T01:36:18;1.13;;;0.63;;
16403;SDS011;8311;50.158;8.642;2022-12-29T01:39:12;0.45;;;0.40;;
16403;SDS011;8311;50.158;8.642;2022-12-29T01:42:09;1.25;;;0.50;;
16403;SDS011;8311;50.158;8.642;2022-12-29T01:45:09;0.68;;;0.50;;
16403;SDS011;8311;50.158;8.642;2022-12-29T01:48:04;0.70;;;0.50;;
16403;SDS011;8311;50.158;8.642;2022-12-29T01:51:01;0.63;;;0.43;;
16403;SDS011;8311;50.158;8.642;2022-12-29T01:53:54;0.40;;;0.40;;
16403;SDS011;8311;50.158;8.642;2022-12-29T01:56:50;1.27;;;0.60;;
16403;SDS011;8311;50.158;8.642;2022-12-29T01:59:47;0.47;;;0.40;;
16403;SDS011;8311;50.158;8.642;2022-12-29T02:02:46;1.75;;;0.50;;
16403;SDS011;8311;50.158;8.642;2022-12-29T02:05:44;1.27;;;0.70;;
16403;SDS011;8311;50.158;8.642;2022-12-29T02:08:42;0.35;;;0.35;;
16403;SDS011;8311;50.158;8.642;2022-12-29T02:11:38;2.97;;;0.70;;
16403;SDS011;8311;50.158;8.642;2022-12-29T02:14:32;0.90;;;0.55;;
16403;SDS011;8311;50.158;8.642;2022-12-29T02:17:28;0.50;;;0.50;;
16403;SDS011;8311;50.158;8.642;2022-12-29T02:20:57;1.13;;;0.60;;
16403;SDS011;8311;50.158;8.642;2022-12-29T02:24:21;0.40;;;0.40;;
16403;SDS011;8311;50.158;8.642;2022-12-29T02:30:46;0.40;;;0.40;;
16403;SDS011;8311;50.158;8.642;2022-12-29T02:33:52;1.55;;;0.70;;
16403;SDS011;8311;50.158;8.642;2022-12-29T02:36:59;0.45;;;0.38;;
16403;SDS011;8311;50.158;8.642;2022-12-29T02:39:59;0.47;;;0.40;;
16403;SDS011;8311;50.158;8.642;2022-12-29T02:43:09;0.70;;;0.50;;
16403;SDS011;8311;50.158;8.642;2022-12-29T02:46:10;0.32;;;0.32;;
16403;SDS011;8311;50.158;8.642;2022-12-29T02:49:10;0.40;;;0.40;;
16403;SDS011;8311;50.158;8.642;2022-12-29T02:52:09;0.98;;;0.65;;
16403;SDS011;8311;50.158;8.642;2022-12-29T02:55:07;0.45;;;0.40;;
16403;SDS011;8311;50.158;8.642;2022-12-29T02:58:13;0.40;;;0.40;;
16403;SDS011;8311;50.158;8.642;2022-12-29T03:01:15;0.63;;;0.50;;
16403;SDS011;8311;50.158;8.642;2022-12-29T03:04:19;0.85;;;0.47;;
16403;SDS011;8311;50.158;8.642;2022-12-29T03:07:19;1.08;;;0.50;;
16403;SDS011;8311;50.158;8.642;2022-12-29T03:10:20;0.70;;;0.40;;
16403;SDS011;8311;50.158;8.642;2022-12-29T03:13:26;0.65;;;0.50;;
16403;SDS011;8311;50.158;8.642;2022-12-29T03:16:45;0.43;;;0.40;;
16403;SDS011;8311;50.158;8.642;2022-12-29T03:19:42;0.30;;;0.30;;
16403;SDS011;8311;50.158;8.642;2022-12-29T03:22:41;0.30;;;0.30;;
16403;SDS011;8311;50.158;8.642;2022-12-29T03:25:37;0.35;;;0.35;;
16403;SDS011;8311;50.158;8.642;2022-12-29T03:28:35;0.65;;;0.38;;
16403;SDS011;8311;50.158;8.642;2022-12-29T03:31:31;0.40;;;0.30;;
16403;SDS011;8311;50.158;8.642;2022-12-29T03:34:26;0.73;;;0.50;;
16403;SDS011;8311;50.158;8.642;2022-12-29T03:37:20;1.02;;;0.40;;
16403;SDS011;8311;50.158;8.642;2022-12-29T03:40:18;0.75;;;0.50;;
16403;SDS011;8311;50.158;8.642;2022-12-29T03:43:13;1.25;;;0.57;;
16403;SDS011;8311;50.158;8.642;2022-12-29T03:46:08;0.70;;;0.40;;
16403;SDS011;8311;50.158;8.642;2022-12-29T03:49:01;0.80;;;0.47;;
16403;SDS011;8311;50.158;8.642;2022-12-29T03:51:57;0.30;;;0.30;;
16403;SDS011;8311;50.158;8.642;2022-12-29T03:54:50;0.40;;;0.40;;
16403;SDS011;8311;50.158;8.642;2022-12-29T03:57:43;0.75;;;0.50;;
16403;SDS011;8311;50.158;8.642;2022-12-29T04:00:36;0.95;;;0.60;;
16403;SDS011;8311;50.158;8.642;2022-12-29T04:03:29;0.60;;;0.50;;
16403;SDS011;8311;50.158;8.642;2022-12-29T04:06:22;0.68;;;0.60;;
16403;SDS011;8311;50.158;8.642;2022-12-29T04:09:17;0.93;;;0.50;;
16403;SDS011;8311;50.158;8.642;2022-12-29T04:12:10;0.47;;;0.40;;
16403;SDS011;8311;50.158;8.642;2022-12-29T04:15:05;0.50;;;0.45;;
16403;SDS011;8311;50.158;8.642;2022-12-29T04:17:59;0.60;;;0.40;;
16403;SDS011;8311;50.158;8.642;2022-12-29T04:20:53;0.25;;;0.25;;
16403;SDS011;8311;50.158;8.642;2022-12-29T04:23:52;0.40;;;0.40;;
16403;SDS011;8311;50.158;8.642;2022-12-29T04:26:47;0.82;;;0.60;;
16403;SDS011;8311;50.158;8.642;2022-12-29T04:29:40;0.93;;;0.30;;
16403;SDS011;8311;50.158;8.642;2022-12-29T04:32:33;0.63;;;0.45;;
16403;SDS011;8311;50.158;8.642;2022-12-29T04:35:26;0.55;;;0.30;;
16403;SDS011;8311;50.158;8.642;2022-12-29T04:38:19;0.40;;;0.40;;
16403;SDS011;8311;50.158;8.642;2022-12-29T04:41:13;0.40;;;0.40;;
16403;SDS011;8311;50.158;8.642;2022-12-29T04:44:09;0.35;;;0.35;;
16403;SDS011;8311;50.158;8.642;2022-12-29T04:47:02;0.80;;;0.40;;
16403;SDS011;8311;50.158;8.642;2022-12-29T04:49:55;0.50;;;0.50;;
16403;SDS011;8311;50.158;8.642;2022-12-29T04:52:48;0.50;;;0.40;;
16403;SDS011;8311;50.158;8.642;2022-12-29T04:55:41;0.55;;;0.40;;
16403;SDS011;8311;50.158;8.642;2022-12-29T04:58:35;1.15;;;0.50;;
16403;SDS011;8311;50.158;8.642;2022-12-29T05:01:31;1.95;;;0.50;;
16403;SDS011;8311;50.158;8.642;2022-12-29T05:04:24;0.55;;;0.50;;
16403;SDS011;8311;50.158;8.642;2022-12-29T05:07:17;0.50;;;0.43;;
16403;SDS011;8311;50.158;8.642;2022-12-29T05:10:11;0.50;;;0.50;;
16403;SDS011;8311;50.158;8.642;2022-12-29T05:13:04;0.63;;;0.50;;
16403;SDS011;8311;50.158;8.642;2022-12-29T05:15:58;0.60;;;0.45;;
16403;SDS011;8311;50.158;8.642;2022-12-29T05:18:52;0.40;;;0.40;;
16403;SDS011;8311;50.158;8.642;2022-12-29T05:21:45;0.32;;;0.32;;
16403;SDS011;8311;50.158;8.642;2022-12-29T05:24:38;0.40;;;0.40;;
16403;SDS011;8311;50.158;8.642;2022-12-29T05:27:31;0.73;;;0.50;;
16403;SDS011;8311;50.158;8.642;2022-12-29T05:30:24;1.30;;;0.60;;
16403;SDS011;8311;50.158;8.642;2022-12-29T05:33:18;0.60;;;0.40;;
16403;SDS011;8311;50.158;8.642;2022-12-29T05:36:12;0.40;;;0.40;;
16403;SDS011;8311;50.158;8.642;2022-12-29T05:39:05;0.68;;;0.47;;
16403;SDS011;8311;50.158;8.642;2022-12-29T05:41:59;0.40;;;0.40;;
16403;SDS011;8311;50.158;8.642;2022-12-29T05:44:52;0.35;;;0.35;;
16403;SDS011;8311;50.158;8.642;2022-12-29T05:47:45;0.57;;;0.47;;
16403;SDS011;8311;50.158;8.642;2022-12-29T05:50:46;0.45;;;0.45;;
16403;SDS011;8311;50.158;8.642;2022-12-29T05:53:40;0.60;;;0.60;;
16403;SDS011;8311;50.158;8.642;2022-12-29T05:56:33;0.40;;;0.40;;
16403;SDS011;8311;50.158;8.642;2022-12-29T05:59:26;0.40;;;0.40;;
16403;SDS011;8311;50.158;8.642;2022-12-29T06:02:20;0.38;;;0.38;;
16403;SDS011;8311;50.158;8.642;2022-12-29T06:05:13;0.30;;;0.30;;
16403;SDS011;8311;50.158;8.642;2022-12-29T06:08:06;0.35;;;0.35;;
16403;SDS011;8311;50.158;8.642;2022-12-29T06:11:00;0.90;;;0.50;;
16403;SDS011;8311;50.158;8.642;2022-12-29T06:13:54;0.52;;;0.52;;
16403;SDS011;8311;50.158;8.642;2022-12-29T06:16:47;0.40;;;0.40;;
16403;SDS011;8311;50.158;8.642;2022-12-29T06:19:40;1.05;;;0.60;;
16403;SDS011;8311;50.158;8.642;2022-12-29T06:22:33;0.40;;;0.40;;
16403;SDS011;8311;50.158;8.642;2022-12-29T06:25:26;1.85;;;0.50;;
16403;SDS011;8311;50.158;8.642;2022-12-29T06:28:23;0.40;;;0.40;;
16403;SDS011;8311;50.158;8.642;2022-12-29T06:31:16;0.30;;;0.30;;
16403;SDS011;8311;50.158;8.642;2022-12-29T06:34:09;1.05;;;0.40;;
16403;SDS011;8311;50.158;8.642;2022-12-29T06:37:02;1.02;;;0.40;;
16403;SDS011;8311;50.158;8.642;2022-12-29T06:39:55;0.40;;;0.40;;
16403;SDS011;8311;50.158;8.642;2022-12-29T06:42:48;0.43;;;0.35;;
16403;SDS011;8311;50.158;8.642;2022-12-29T06:45:42;0.30;;;0.30;;
16403;SDS011;8311;50.158;8.642;2022-12-29T06:48:37;0.40;;;0.40;;
16403;SDS011;8311;50.158;8.642;2022-12-29T06:51:29;0.70;;;0.40;;
16403;SDS011;8311;50.158;8.642;2022-12-29T06:54:23;0.43;;;0.35;;
16403;SDS011;8311;50.158;8.642;2022-12-29T06:57:16;0.43;;;0.40;;
16403;SDS011;8311;50.158;8.642;2022-12-29T07:00:10;0.40;;;0.30;;
16403;SDS011;8311;50.158;8.642;2022-12-29T07:03:13;0.50;;;0.50;;
16403;SDS011;8311;50.158;8.642;2022-12-29T07:06:07;0.47;;;0.47;;
16403;SDS011;8311;50.158;8.642;2022-12-29T07:09:01;0.90;;;0.50;;
16403;SDS011;8311;50.158;8.642;2022-12-29T07:11:54;0.32;;;0.32;;
16403;SDS011;8311;50.158;8.642;2022-12-29T07:14:48;0.47;;;0.40;;
16403;SDS011;8311;50.158;8.642;2022-12-29T07:17:40;0.25;;;0.25;;
16403;SDS011;8311;50.158;8.642;2022-12-29T07:20:35;0.40;;;0.30;;
16403;SDS011;8311;50.158;8.642;2022-12-29T07:23:27;0.60;;;0.50;;
16403;SDS011;8311;50.158;8.642;2022-12-29T07:26:20;0.82;;;0.57;;
16403;SDS011;8311;50.158;8.642;2022-12-29T07:29:13;0.73;;;0.60;;
16403;SDS011;8311;50.158;8.642;2022-12-29T07:32:07;0.52;;;0.47;;
16403;SDS011;8311;50.158;8.642;2022-12-29T07:35:00;0.85;;;0.60;;
16403;SDS011;8311;50.158;8.642;2022-12-29T07:37:56;1.08;;;0.52;;
16403;SDS011;8311;50.158;8.642;2022-12-29T07:40:49;0.50;;;0.50;;
16403;SDS011;8311;50.158;8.642;2022-12-29T07:43:42;0.50;;;0.50;;
16403;SDS011;8311;50.158;8.642;2022-12-29T07:46:39;1.20;;;0.57;;
16403;SDS011;8311;50.158;8.642;2022-12-29T07:49:47;0.45;;;0.45;;
16403;SDS011;8311;50.158;8.642;2022-12-29T07:52:40;0.40;;;0.40;;
16403;SDS011;8311;50.158;8.642;2022-12-29T07:55:35;0.55;;;0.50;;
16403;SDS011;8311;50.158;8.642;2022-12-29T07:58:28;0.50;;;0.40;;
16403;SDS011;8311;50.158;8.642;2022-12-29T08:01:21;0.45;;;0.40;;
16403;SDS011;8311;50.158;8.642;2022-12-29T08:04:16;2.00;;;0.50;;
16403;SDS011;8311;50.158;8.642;2022-12-29T08:07:09;0.98;;;0.50;;
16403;SDS011;8311;50.158;8.642;2022-12-29T08:10:03;0.73;;;0.47;;
16403;SDS011;8311;50.158;8.642;2022-12-29T08:12:58;0.55;;;0.50;;
16403;SDS011;8311;50.158;8.642;2022-12-29T08:15:51;0.40;;;0.40;;
16403;SDS011;8311;50.158;8.642;2022-12-29T08:18:44;1.08;;;0.77;;
16403;SDS011;8311;50.158;8.642;2022-12-29T08:21:37;0.77;;;0.60;;
16403;SDS011;8311;50.158;8.642;2022-12-29T08:24:30;1.30;;;0.77;;
16403;SDS011;8311;50.158;8.642;2022-12-29T08:27:24;0.75;;;0.40;;
16403;SDS011;8311;50.158;8.642;2022-12-29T08:30:19;0.88;;;0.50;;
16403;SDS011;8311;50.158;8.642;2022-12-29T08:33:12;0.73;;;0.45;;
16403;SDS011;8311;50.158;8.642;2022-12-29T08:36:05;0.47;;;0.47;;
16403;SDS011;8311;50.158;8.642;2022-12-29T08:38:59;0.45;;;0.40;;
16403;SDS011;8311;50.158;8.642;2022-12-29T08:41:52;1.25;;;0.82;;
16403;SDS011;8311;50.158;8.642;2022-12-29T08:44:46;4.78;;;0.70;;
16403;SDS011;8311;50.158;8.642;2022-12-29T08:47:39;0.95;;;0.52;;
16403;SDS011;8311;50.158;8.642;2022-12-29T08:50:33;0.60;;;0.50;;
16403;SDS011;8311;50.158;8.642;2022-12-29T08:53:25;1.45;;;0.60;;
16403;SDS011;8311;50.158;8.642;2022-12-29T08:56:18;1.52;;;0.70;;
16403;SDS011;8311;50.158;8.642;2022-12-29T08:59:11;1.90;;;0.70;;
16403;SDS011;8311;50.158;8.642;2022-12-29T09:02:05;0.70;;;0.57;;
16403;SDS011;8311;50.158;8.642;2022-12-29T09:05:00;1.95;;;0.50;;
16403;SDS011;8311;50.158;8.642;2022-12-29T09:07:54;0.50;;;0.50;;
16403;SDS011;8311;50.158;8.642;2022-12-29T09:10:46;1.00;;;0.70;;
16403;SDS011;8311;50.158;8.642;2022-12-29T09:13:39;0.98;;;0.55;;
16403;SDS011;8311;50.158;8.642;2022-12-29T09:16:32;1.25;;;0.50;;
16403;SDS011;8311;50.158;8.642;2022-12-29T09:19:26;1.00;;;0.80;;
16403;SDS011;8311;50.158;8.642;2022-12-29T09:22:20;0.60;;;0.60;;
16403;SDS011;8311;50.158;8.642;2022-12-29T09:25:13;2.20;;;1.13;;
16403;SDS011;8311;50.158;8.642;2022-12-29T09:28:06;2.72;;;1.55;;
16403;SDS011;8311;50.158;8.642;2022-12-29T09:31:00;2.60;;;1.50;;
16403;SDS011;8311;50.158;8.642;2022-12-29T09:33:53;2.72;;;1.35;;
16403;SDS011;8311;50.158;8.642;2022-12-29T09:36:47;4.75;;;1.70;;
16403;SDS011;8311;50.158;8.642;2022-12-29T09:39:40;2.42;;;1.38;;
16403;SDS011;8311;50.158;8.642;2022-12-29T09:42:41;2.80;;;1.80;;
16403;SDS011;8311;50.158;8.642;2022-12-29T09:45:39;5.70;;;2.25;;
16403;SDS011;8311;50.158;8.642;2022-12-29T09:48:37;6.00;;;2.55;;
16403;SDS011;8311;50.158;8.642;2022-12-29T09:51:35;5.90;;;2.22;;
16403;SDS011;8311;50.158;8.642;2022-12-29T09:54:38;11.55;;;2.60;;
16403;SDS011;8311;50.158;8.642;2022-12-29T09:57:52;8.93;;;2.70;;
16403;SDS011;8311;50.158;8.642;2022-12-29T10:00:49;14.60;;;2.63;;
16403;SDS011;8311;50.158;8.642;2022-12-29T10:03:47;6.60;;;2.25;;
16403;SDS011;8311;50.158;8.642;2022-12-29T10:06:42;5.55;;;2.20;;
16403;SDS011;8311;50.158;8.642;2022-12-29T10:10:10;5.57;;;1.80;;
16403;SDS011;8311;50.158;8.642;2022-12-29T10:13:24;4.53;;;1.80;;
16403;SDS011;8311;50.158;8.642;2022-12-29T10:16:23;7.80;;;1.70;;
16403;SDS011;8311;50.158;8.642;2022-12-29T10:22:48;8.40;;;2.70;;
16403;SDS011;8311;50.158;8.642;2022-12-29T10:25:55;7.72;;;2.45;;
16403;SDS011;8311;50.158;8.642;2022-12-29T10:28:50;13.75;;;3.03;;
16403;SDS011;8311;50.158;8.642;2022-12-29T10:31:48;12.57;;;3.00;;
16403;SDS011;8311;50.158;8.642;2022-12-29T10:34:49;16.30;;;3.20;;
16403;SDS011;8311;50.158;8.642;2022-12-29T10:37:47;11.07;;;2.97;;
16403;SDS011;8311;50.158;8.642;2022-12-29T10:40:45;11.13;;;2.80;;
16403;SDS011;8311;50.158;8.642;2022-12-29T10:43:44;11.57;;;2.90;;
16403;SDS011;8311;50.158;8.642;2022-12-29T10:46:40;11.25;;;3.15;;
16403;SDS011;8311;50.158;8.642;2022-12-29T10:49:36;8.82;;;2.92;;
16403;SDS011;8311;50.158;8.642;2022-12-29T10:52:34;13.13;;;2.92;;
16403;SDS011;8311;50.158;8.642;2022-12-29T10:55:31;7.50;;;2.25;;
16403;SDS011;8311;50.158;8.642;2022-12-29T10:58:27;13.02;;;2.67;;
16403;SDS011;8311;50.158;8.642;2022-12-29T11:01:24;13.75;;;3.03;;
16403;SDS011;8311;50.158;8.642;2022-12-29T11:04:28;8.75;;;2.75;;
16403;SDS011;8311;50.158;8.642;2022-12-29T11:07:33;19.08;;;4.40;;
16403;SDS011;8311;50.158;8.642;2022-12-29T11:10:29;9.10;;;2.60;;
16403;SDS011;8311;50.158;8.642;2022-12-29T11:13:28;7.22;;;3.15;;
16403;SDS011;8311;50.158;8.642;2022-12-29T11:16:32;9.40;;;2.72;;
16403;SDS011;8311;50.158;8.642;2022-12-29T11:19:28;13.52;;;2.85;;
16403;SDS011;8311;50.158;8.642;2022-12-29T11:22:30;10.88;;;3.15;;
16403;SDS011;8311;50.158;8.642;2022-12-29T11:25:23;9.73;;;2.53;;
16403;SDS011;8311;50.158;8.642;2022-12-29T11:28:17;8.23;;;2.45;;
16403;SDS011;8311;50.158;8.642;2022-12-29T11:31:09;13.10;;;2.42;;
16403;SDS011;8311;50.158;8.642;2022-12-29T11:34:07;9.38;;;2.28;;
16403;SDS011;8311;50.158;8.642;2022-12-29T11:37:02;10.27;;;2.72;;
16403;SDS011;8311;50.158;8.642;2022-12-29T11:39:58;8.13;;;2.00;;
16403;SDS011;8311;50.158;8.642;2022-12-29T11:42:56;8.00;;;2.38;;
16403;SDS011;8311;50.158;8.642;2022-12-29T11:45:53;8.65;;;2.10;;
16403;SDS011;8311;50.158;8.642;2022-12-29T11:48:47;5.35;;;2.22;;
16403;SDS011;8311;50.158;8.642;2022-12-29T11:51:43;7.30;;;2.22;;
16403;SDS011;8311;50.158;8.642;2022-12-29T11:54:38;9.05;;;2.20;;
16403;SDS011;8311;50.158;8.642;2022-12-29T11:57:32;8.80;;;2.03;;
16403;SDS011;8311;50.158;8.642;2022-12-29T12:00:27;5.88;;;1.92;;
16403;SDS011;8311;50.158;8.642;2022-12-29T12:03:24;5.47;;;2.08;;
16403;SDS011;8311;50.158;8.642;2022-12-29T12:06:21;6.53;;;2.00;;
16403;SDS011;8311;50.158;8.642;2022-12-29T12:09:19;5.60;;;1.90;;
16403;SDS011;8311;50.158;8.642;2022-12-29T12:12:21;6.55;;;1.73;;
16403;SDS011;8311;50.158;8.642;2022-12-29T12:15:20;3.38;;;1.77;;
16403;SDS011;8311;50.158;8.642;2022-12-29T12:18:18;5.53;;;1.88;;
16403;SDS011;8311;50.158;8.642;2022-12-29T12:21:22;5.90;;;2.10;;
16403;SDS011;8311;50.158;8.642;2022-12-29T12:24:23;3.50;;;1.45;;
16403;SDS011;8311;50.158;8.642;2022-12-29T12:27:28;2.67;;;1.40;;
16403;SDS011;8311;50.158;8.642;2022-12-29T12:30:34;5.15;;;1.88;;
16403;SDS011;8311;50.158;8.642;2022-12-29T12:33:33;4.10;;;1.48;;
16403;SDS011;8311;50.158;8.642;2022-12-29T12:36:44;5.07;;;2.00;;
16403;SDS011;8311;50.158;8.642;2022-12-29T12:40:01;12.63;;;2.20;;
16403;SDS011;8311;50.158;8.642;2022-12-29T12:43:08;10.80;;;2.30;;
16403;SDS011;8311;50.158;8.642;2022-12-29T12:46:34;14.13;;;3.15;;
16403;SDS011;8311;50.158;8.642;2022-12-29T12:49:47;31.10;;;3.97;;
16403;SDS011;8311;50.158;8.642;2022-12-29T12:53:07;17.55;;;3.40;;
16403;SDS011;8311;50.158;8.642;2022-12-29T12:56:24;20.45;;;3.38;;
16403;SDS011;8311;50.158;8.642;2022-12-29T12:59:32;19.30;;;3.55;;
16403;SDS011;8311;50.158;8.642;2022-12-29T13:02:36;15.23;;;3.63;;
16403;SDS011;8311;50.158;8.642;2022-12-29T13:05:44;14.18;;;2.90;;
16403;SDS011;8311;50.158;8.642;2022-12-29T13:08:54;12.25;;;2.53;;
16403;SDS011;8311;50.158;8.642;2022-12-29T13:12:05;12.48;;;2.95;;
16403;SDS011;8311;50.158;8.642;2022-12-29T13:15:11;12.30;;;2.95;;
16403;SDS011;8311;50.158;8.642;2022-12-29T13:18:16;14.13;;;2.67;;
16403;SDS011;8311;50.158;8.642;2022-12-29T13:21:20;19.25;;;3.40;;
16403;SDS011;8311;50.158;8.642;2022-12-29T13:24:24;11.70;;;2.58;;
16403;SDS011;8311;50.158;8.642;2022-12-29T13:27:25;16.50;;;3.00;;
16403;SDS011;8311;50.158;8.642;2022-12-29T13:30:28;12.30;;;2.08;;
16403;SDS011;8311;50.158;8.642;2022-12-29T13:33:27;14.45;;;2.80;;
16403;SDS011;8311;50.158;8.642;2022-12-29T13:36:29;15.05;;;2.25;;
16403;SDS011;8311;50.158;8.642;2022-12-29T13:39:27;9.35;;;2.53;;
16403;SDS011;8311;50.158;8.642;2022-12-29T13:42:27;6.25;;;2.03;;
16403;SDS011;8311;50.158;8.642;2022-12-29T13:45:21;9.05;;;2.33;;
16403;SDS011;8311;50.158;8.642;2022-12-29T13:48:17;6.80;;;1.73;;
16403;SDS011;8311;50.158;8.642;2022-12-29T13:51:13;7.50;;;1.88;;
16403;SDS011;8311;50.158;8.642;2022-12-29T13:54:25;22.10;;;2.67;;
16403;SDS011;8311;50.158;8.642;2022-12-29T13:57:35;17.83;;;3.45;;
16403;SDS011;8311;50.158;8.642;2022-12-29T14:00:38;20.38;;;3.10;;
16403;SDS011;8311;50.158;8.642;2022-12-29T14:03:44;13.80;;;3.13;;
16403;SDS011;8311;50.158;8.642;2022-12-29T14:06:58;21.10;;;3.58;;
16403;SDS011;8311;50.158;8.642;2022-12-29T14:09:54;13.10;;;3.00;;
16403;SDS011;8311;50.158;8.642;2022-12-29T14:12:50;21.73;;;3.65;;
16403;SDS011;8311;50.158;8.642;2022-12-29T14:15:43;21.05;;;3.47;;
16403;SDS011;8311;50.158;8.642;2022-12-29T14:18:41;25.27;;;4.07;;
16403;SDS011;8311;50.158;8.642;2022-12-29T14:21:36;19.15;;;3.88;;
16403;SDS011;8311;50.158;8.642;2022-12-29T14:24:38;23.73;;;4.13;;
16403;SDS011;8311;50.158;8.642;2022-12-29T14:27:52;22.70;;;3.72;;
16403;SDS011;8311;50.158;8.642;2022-12-29T14:30:49;20.25;;;3.50;;
16403;SDS011;8311;50.158;8.642;2022-12-29T14:34:14;16.73;;;3.08;;
16403;SDS011;8311;50.158;8.642;2022-12-29T14:37:23;11.93;;;2.97;;
16403;SDS011;8311;50.158;8.642;2022-12-29T14:40:19;19.85;;;3.20;;
16403;SDS011;8311;50.158;8.642;2022-12-29T14:43:20;12.43;;;2.70;;
16403;SDS011;8311;50.158;8.642;2022-12-29T14:46:18;11.13;;;2.83;;
16403;SDS011;8311;50.158;8.642;2022-12-29T14:49:14;11.32;;;3.08;;
16403;SDS011;8311;50.158;8.642;2022-12-29T14:52:15;12.15;;;2.60;;
16403;SDS011;8311;50.158;8.642;2022-12-29T14:55:28;9.10;;;2.53;;
16403;SDS011;8311;50.158;8.642;2022-12-29T14:58:27;9.55;;;2.30;;
16403;SDS011;8311;50.158;8.642;2022-12-29T15:01:23;9.52;;;2.65;;
16403;SDS011;8311;50.158;8.642;2022-12-29T15:04:20;7.25;;;2.10;;
16403;SDS011;8311;50.158;8.642;2022-12-29T15:07:17;10.60;;;3.08;;
16403;SDS011;8311;50.158;8.642;2022-12-29T15:10:13;11.80;;;2.65;;
16403;SDS011;8311;50.158;8.642;2022-12-29T15:13:13;10.52;;;2.60;;
16403;SDS011;8311;50.158;8.642;2022-12-29T15:16:21;6.88;;;1.92;;
16403;SDS011;8311;50.158;8.642;2022-12-29T15:19:20;8.13;;;2.40;;
16403;SDS011;8311;50.158;8.642;2022-12-29T15:22:15;6.50;;;2.42;;
16403;SDS011;8311;50.158;8.642;2022-12-29T15:25:12;6.65;;;2.38;;
16403;SDS011;8311;50.158;8.642;2022-12-29T15:28:10;7.38;;;2.15;;
16403;SDS011;8311;50.158;8.642;2022-12-29T15:31:05;8.63;;;2.20;;
16403;SDS011;8311;50.158;8.642;2022-12-29T15:34:10;7.05;;;2.00;;
16403;SDS011;8311;50.158;8.642;2022-12-29T15:37:05;7.88;;;2.13;;
16403;SDS011;8311;50.158;8.642;2022-12-29T15:40:01;6.25;;;1.70;;
16403;SDS011;8311;50.158;8.642;2022-12-29T15:43:08;5.93;;;2.08;;
16403;SDS011;8311;50.158;8.642;2022-12-29T15:46:10;5.85;;;2.00;;
16403;SDS011;8311;50.158;8.642;2022-12-29T15:49:04;4.60;;;1.85;;
16403;SDS011;8311;50.158;8.642;2022-12-29T15:52:00;4.93;;;1.70;;
16403;SDS011;8311;50.158;8.642;2022-12-29T15:54:59;5.07;;;1.55;;
16403;SDS011;8311;50.158;8.642;2022-12-29T15:57:55;4.45;;;1.35;;
16403;SDS011;8311;50.158;8.642;2022-12-29T16:00:50;4.82;;;1.48;;
16403;SDS011;8311;50.158;8.642;2022-12-29T16:03:46;3.92;;;1.60;;
16403;SDS011;8311;50.158;8.642;2022-12-29T16:06:43;6.55;;;1.60;;
16403;SDS011;8311;50.158;8.642;2022-12-29T16:09:47;6.22;;;1.50;;
16403;SDS011;8311;50.158;8.642;2022-12-29T16:12:41;3.97;;;1.33;;
16403;SDS011;8311;50.158;8.642;2022-12-29T16:15:35;3.80;;;1.30;;
16403;SDS011;8311;50.158;8.642;2022-12-29T16:18:29;4.65;;;1.33;;
16403;SDS011;8311;50.158;8.642;2022-12-29T16:21:28;6.85;;;1.63;;
16403;SDS011;8311;50.158;8.642;2022-12-29T16:24:26;3.20;;;1.38;;
16403;SDS011;8311;50.158;8.642;2022-12-29T16:27:25;2.45;;;1.20;;
16403;SDS011;8311;50.158;8.642;2022-12-29T16:30:25;6.47;;;2.20;;
16403;SDS011;8311;50.158;8.642;2022-12-29T16:33:29;6.57;;;1.77;;
16403;SDS011;8311;50.158;8.642;2022-12-29T16:36:31;5.53;;;1.65;;
16403;SDS011;8311;50.158;8.642;2022-12-29T16:39:33;5.40;;;1.60;;
16403;SDS011;8311;50.158;8.642;2022-12-29T16:42:35;3.88;;;1.40;;
16403;SDS011;8311;50.158;8.642;2022-12-29T16:49:11;2.83;;;1.30;;
16403;SDS011;8311;50.158;8.642;2022-12-29T16:52:11;5.65;;;1.23;;
16403;SDS011;8311;50.158;8.642;2022-12-29T16:55:14;5.90;;;1.52;;
16403;SDS011;8311;50.158;8.642;2022-12-29T16:58:12;17.05;;;2.65;;
16403;SDS011;8311;50.158;8.642;2022-12-29T17:01:11;8.90;;;1.80;;
16403;SDS011;8311;50.158;8.642;2022-12-29T17:04:11;13.63;;;2.38;;
16403;SDS011;8311;50.158;8.642;2022-12-29T17:07:07;6.80;;;1.60;;
16403;SDS011;8311;50.158;8.642;2022-12-29T17:10:07;7.40;;;1.73;;
16403;SDS011;8311;50.158;8.642;2022-12-29T17:13:01;8.10;;;1.63;;
16403;SDS011;8311;50.158;8.642;2022-12-29T17:15:55;9.65;;;1.63;;
16403;SDS011;8311;50.158;8.642;2022-12-29T17:18:49;13.10;;;2.10;;
16403;SDS011;8311;50.158;8.642;2022-12-29T17:21:42;16.90;;;2.17;;
16403;SDS011;8311;50.158;8.642;2022-12-29T17:24:34;10.63;;;2.17;;
16403;SDS011;8311;50.158;8.642;2022-12-29T17:27:30;5.47;;;2.17;;
16403;SDS011;8311;50.158;8.642;2022-12-29T17:30:27;7.90;;;1.67;;
16403;SDS011;8311;50.158;8.642;2022-12-29T17:33:26;8.40;;;2.00;;
16403;SDS011;8311;50.158;8.642;2022-12-29T17:36:22;4.72;;;1.48;;
16403;SDS011;8311;50.158;8.642;2022-12-29T17:39:15;7.28;;;1.48;;
16403;SDS011;8311;50.158;8.642;2022-12-29T17:42:11;7.88;;;2.03;;
16403;SDS011;8311;50.158;8.642;2022-12-29T17:45:04;6.22;;;1.92;;
16403;SDS011;8311;50.158;8.642;2022-12-29T17:47:58;6.25;;;1.83;;
16403;SDS011;8311;50.158;8.642;2022-12-29T17:50:54;9.82;;;2.10;;
16403;SDS011;8311;50.158;8.642;2022-12-29T17:53:49;6.78;;;1.58;;
16403;SDS011;8311;50.158;8.642;2022-12-29T17:56:43;10.38;;;1.83;;
16403;SDS011;8311;50.158;8.642;2022-12-29T17:59:35;8.23;;;1.77;;
16403;SDS011;8311;50.158;8.642;2022-12-29T18:02:29;9.55;;;1.60;;
16403;SDS011;8311;50.158;8.642;2022-12-29T18:05:25;4.85;;;1.60;;
16403;SDS011;8311;50.158;8.642;2022-12-29T18:08:21;5.60;;;1.35;;
16403;SDS011;8311;50.158;8.642;2022-12-29T18:11:19;6.72;;;1.45;;
16403;SDS011;8311;50.158;8.642;2022-12-29T18:14:15;6.07;;;1.50;;
16403;SDS011;8311;50.158;8.642;2022-12-29T18:17:10;5.82;;;1.65;;